Hlavní strana
METAR-TAF:

METAR-TAF

Letiště :

David, Panama

zeměpisná šířka: 08-24N, zeměpisná délka: 082-25W, výška: 29 m

Aktuální stav počasí

Zpráva byla vytvořena před 1 hodinou a 9 minutami, v 22:00 UTC
Jižní vítr 6 kt
Teplota 27°C
Vlhkost vzduchu 84%
Tlak 1007 hPa
Viditelnost 10 km a více
Skoro jasno ve výšce 1000 ft
Polojasno ve výšce 1500 ft, Cumulonimbus.

METAR: MPDA 222200Z 19006KT 9999 FEW010 SCT015CB 27/24 Q1007

Čas: 18:09 (23:09 UTC)

Předpověď počasí

Zpráva byla vytvořena před 6 hodinami a 9 minutami, v 17:00 UTC
Předpověď platná od 22 v 18 UTC do 23 v 06 UTC
Jihojihozápadní vítr 6 kt
Viditelnost 10 km a více
Polojasno ve výšce 1800 ft
Polojasno ve výšce 9000 ft
Pravděpodobnost 30% :
Dočasný
od 22 v 20 UTC do 22 v 24 UTC
Viditelnost: 7000 m
Polojasno ve výšce 1500 ft
Oblačno až skoro zataženo ve výšce 8000 ft
déšť

TAF: MPDA 221700Z 2218/2306 20006KT 9999 SCT018 SCT090 PROB30 TEMPO 2220/2224 7000 RA SCT015 BKN080

Stav a předpovědi počasí z více než 4 000 letišť (zprávy METAR a TAF).

Červené a žluté tečky na mapě představují dostupné meteorologické stanice.

Když kurzor umístíte na tečku, zobrazí se název stanice.

Pak kliknutím zobrazíte stav a předpověď počasí.

Chcete-li změnit mapu, kliknutím na zelené tlačítko se znaménkem +mapu přiblížíte, kliknutím na zelené tlačítko se znaménkem – mapu oddálíte a kliknutím na zelené šipky přejdete na sousední mapy.


METAR-TAF: